Archival Weather

Snohomish County (Paine Fld)

Everett, Washington (KPAE)

Report from: Saturday, November 11, 2023 3:53 AM PST
Current time: Monday, June 17, 2024 12:14 AM PDT

Current weather – Weather history – Daily summaries
Weather forecast

Temperature10.6°C (51.1°F)
Dew point6.7°C (44.1°F)
Winds 26 kts (13.4 m/s, 29.9 mph) South (190°)
Wind gusts 44 kts (22.6 m/s, 50.6 mph)
Peak wind 44 kts (22.6 m/s, 50.6 mph) South (180°) at 11:47
Visibility10 mi. (16.1 km)
Clouds Ceiling: Overcast 2,400 ft. (732 m)
Altimeter29.70 in.Hg (1006 mB)
PrecipitiationTrace
Precip. events Rain ended 10:54 AM
Precip last 3 hours0.02 in. (1 mm)
Precip last 24 hours0.03 in. (1 mm)
Relative humidity77 %
Density altitude-134 ft. (-41 m)
Sea-level pressure100.6 kPa (1006 mB, 29.70 in.Hg)
Max temp last 6 hours10.6°C (51.1°F)
Min temp last 6 hours8.9°C (48.0°F)
Remarks Fully automated report
Automated weather observing station with precipitation discriminator
Pressure falling more slowly
Flight conditions Marginal Visual Meteorological Conditions
Raw dataKPAE 111153Z AUTO 19026G44KT 10SM OVC024 11/07 A2970 RMK AO2 PK WND 18044/1147 RAE1054 SLP059 P0000 60002 70003 T01060067 10106 20089 56048
An error has occurred. This application may no longer respond until reloaded. Reload 🗙